createdAt,value
2022-10-31T00:01:49.219Z,7.07
2022-10-31T00:04:15.873Z,6.93
2022-10-31T00:06:42.530Z,7.23
2022-10-31T00:09:10.923Z,7.37
2022-10-31T00:11:37.688Z,6.87
2022-10-31T00:14:05.068Z,6.50
2022-10-31T00:16:31.794Z,7.13
2022-10-31T00:19:01.512Z,7.40
2022-10-31T00:21:29.315Z,6.73
2022-10-31T00:23:56.093Z,7.93
2022-10-31T00:26:22.742Z,8.43
2022-10-31T00:28:49.636Z,7.70
2022-10-31T00:31:16.358Z,7.27
2022-10-31T00:33:43.758Z,6.70
2022-10-31T00:36:18.487Z,6.80
2022-10-31T00:38:46.181Z,7.07
2022-10-31T00:41:14.593Z,7.07
2022-10-31T00:43:41.902Z,7.33
2022-10-31T00:46:08.606Z,7.70
2022-10-31T00:48:35.261Z,6.83
2022-10-31T00:51:01.924Z,6.63
2022-10-31T00:53:28.575Z,6.77
2022-10-31T00:55:55.218Z,6.87
2022-10-31T00:58:21.951Z,6.03
2022-10-31T01:00:57.882Z,6.70
2022-10-31T01:03:30.015Z,6.17
2022-10-31T01:06:09.019Z,6.37
2022-10-31T01:08:37.616Z,6.60
2022-10-31T01:11:19.150Z,7.03
2022-10-31T01:13:46.913Z,6.77
2022-10-31T01:16:16.469Z,6.70
2022-10-31T01:18:44.137Z,6.87
2022-10-31T01:21:13.621Z,7.10
2022-10-31T01:23:40.988Z,6.00
2022-10-31T01:26:17.575Z,6.70
2022-10-31T01:28:48.618Z,6.10
2022-10-31T01:31:16.162Z,6.43
2022-10-31T01:33:43.086Z,6.13
2022-10-31T01:36:14.946Z,6.60
2022-10-31T01:38:41.649Z,6.10
2022-10-31T01:41:10.509Z,5.80
2022-10-31T01:43:45.376Z,6.00
2022-10-31T01:46:12.637Z,6.60
2022-10-31T01:48:43.341Z,6.57
2022-10-31T01:51:13.557Z,6.20
2022-10-31T01:53:44.448Z,6.30
2022-10-31T01:56:11.642Z,6.90
2022-10-31T01:58:38.608Z,6.73
2022-10-31T02:01:07.824Z,6.90
2022-10-31T02:03:35.326Z,6.73
2022-10-31T02:06:03.952Z,6.90
2022-10-31T02:08:33.414Z,6.63
2022-10-31T02:11:02.345Z,7.23
2022-10-31T02:13:30.243Z,6.70
2022-10-31T02:15:59.265Z,6.07
2022-10-31T02:18:29.102Z,6.80
2022-10-31T02:21:13.754Z,6.50
2022-10-31T02:24:10.680Z,6.77
2022-10-31T02:26:55.819Z,6.60
2022-10-31T02:29:31.579Z,6.83
2022-10-31T02:31:58.217Z,7.20
2022-10-31T02:34:41.174Z,7.03
2022-10-31T02:37:12.949Z,6.77
2022-10-31T02:40:05.364Z,7.17
2022-10-31T02:42:39.914Z,6.57
2022-10-31T02:45:29.583Z,7.63
2022-10-31T02:48:02.709Z,6.33
2022-10-31T02:50:38.771Z,7.17
2022-10-31T02:53:05.463Z,6.97
2022-10-31T02:55:32.099Z,6.87
2022-10-31T02:58:05.701Z,6.80
2022-10-31T03:00:52.205Z,7.13
2022-10-31T03:03:44.030Z,7.00
2022-10-31T03:06:16.204Z,6.67
2022-10-31T03:09:11.949Z,7.10
2022-10-31T03:11:51.657Z,7.43
2022-10-31T03:14:30.851Z,7.97
2022-10-31T03:17:02.732Z,6.70
2022-10-31T03:19:50.546Z,6.70
2022-10-31T03:22:30.515Z,7.07
2022-10-31T03:24:58.260Z,7.27
2022-10-31T03:27:27.214Z,6.40
2022-10-31T03:30:01.540Z,8.20
2022-10-31T03:32:54.219Z,6.73
2022-10-31T03:35:23.977Z,7.23
2022-10-31T03:37:52.515Z,8.17
2022-10-31T03:40:21.933Z,8.20
2022-10-31T03:42:55.524Z,6.77
2022-10-31T03:45:28.665Z,7.83
2022-10-31T03:47:56.171Z,6.87
2022-10-31T03:50:24.953Z,6.30
2022-10-31T03:53:09.170Z,6.97
2022-10-31T03:55:43.775Z,7.10
2022-10-31T03:58:25.127Z,7.37
2022-10-31T04:00:55.436Z,7.23
2022-10-31T04:03:30.511Z,6.77
2022-10-31T04:06:01.926Z,6.70
2022-10-31T04:08:32.298Z,7.30
2022-10-31T04:11:01.004Z,7.07
2022-10-31T04:13:31.084Z,7.43
2022-10-31T04:15:58.342Z,7.07
2022-10-31T04:18:25.253Z,8.20
2022-10-31T04:21:01.457Z,7.70
2022-10-31T04:23:28.549Z,7.03
2022-10-31T04:25:55.290Z,6.93
2022-10-31T04:28:22.255Z,7.00
2022-10-31T04:30:49.039Z,7.37
2022-10-31T04:33:15.764Z,8.13
2022-10-31T04:35:42.691Z,7.47
2022-10-31T04:38:09.326Z,6.90
2022-10-31T04:40:35.990Z,7.57
2022-10-31T04:43:02.858Z,7.23
2022-10-31T04:45:29.839Z,7.07
2022-10-31T04:47:56.545Z,7.23
2022-10-31T04:50:23.225Z,7.67
2022-10-31T04:52:50.889Z,7.43
2022-10-31T04:55:18.013Z,8.20
2022-10-31T04:57:46.203Z,7.53
2022-10-31T05:00:14.012Z,8.27
2022-10-31T05:02:54.717Z,7.83
2022-10-31T05:05:23.762Z,7.37
2022-10-31T05:07:51.703Z,7.70
2022-10-31T05:10:19.976Z,7.17
2022-10-31T05:12:51.938Z,7.70
2022-10-31T05:15:20.885Z,7.13
2022-10-31T05:17:47.704Z,7.53
2022-10-31T05:20:15.937Z,7.07
2022-10-31T05:22:47.144Z,7.47
2022-10-31T05:25:13.883Z,6.50
2022-10-31T05:27:45.891Z,6.80
2022-10-31T05:30:15.063Z,7.33
2022-10-31T05:32:43.836Z,7.23
2022-10-31T05:35:13.376Z,7.73
2022-10-31T05:37:40.629Z,8.17
2022-10-31T05:40:10.149Z,7.47
2022-10-31T05:42:36.870Z,7.50
2022-10-31T05:45:03.827Z,7.17
2022-10-31T05:47:30.488Z,7.27
2022-10-31T05:49:57.142Z,7.57
2022-10-31T05:52:23.852Z,7.37
2022-10-31T05:54:50.526Z,7.97
2022-10-31T05:57:17.215Z,7.33
2022-10-31T05:59:43.962Z,7.47
2022-10-31T06:02:10.724Z,6.77
2022-10-31T06:04:37.421Z,7.73
2022-10-31T06:07:04.122Z,7.80
2022-10-31T06:09:30.776Z,8.20
2022-10-31T06:11:57.494Z,8.87
2022-10-31T06:14:24.200Z,8.00
2022-10-31T06:16:50.906Z,8.97
2022-10-31T06:19:17.593Z,8.43
2022-10-31T06:21:44.310Z,9.23
2022-10-31T06:24:10.971Z,8.40
2022-10-31T06:26:37.632Z,11.00
2022-10-31T06:29:04.412Z,10.00
2022-10-31T06:31:31.205Z,12.70
2022-10-31T06:33:58.155Z,9.07
2022-10-31T06:36:25.000Z,10.73
2022-10-31T06:38:51.711Z,8.50
2022-10-31T06:41:18.424Z,8.63
2022-10-31T06:43:48.162Z,9.03
2022-10-31T06:46:14.896Z,8.03
2022-10-31T06:48:42.932Z,7.10
2022-10-31T06:51:10.037Z,8.20
2022-10-31T06:53:36.787Z,9.00
2022-10-31T06:56:04.041Z,8.40
2022-10-31T06:58:30.743Z,9.27
2022-10-31T07:01:01.056Z,10.17
2022-10-31T07:03:27.909Z,8.23
2022-10-31T07:05:57.421Z,10.37
2022-10-31T07:08:25.795Z,9.00
2022-10-31T07:10:57.098Z,9.10
2022-10-31T07:13:27.527Z,8.20
2022-10-31T07:15:56.273Z,7.77
2022-10-31T07:18:23.046Z,8.43
2022-10-31T07:20:49.826Z,7.93
2022-10-31T07:23:16.556Z,8.17
2022-10-31T07:25:43.387Z,8.70
2022-10-31T07:28:10.900Z,7.50
2022-10-31T07:30:38.813Z,8.80
2022-10-31T07:33:06.297Z,7.63
2022-10-31T07:35:33.389Z,7.33
2022-10-31T07:38:09.407Z,7.73
2022-10-31T07:40:36.103Z,7.00
2022-10-31T07:43:02.857Z,8.43
2022-10-31T07:45:29.760Z,7.10
2022-10-31T07:47:56.668Z,7.27
2022-10-31T07:50:26.353Z,6.87
2022-10-31T07:53:05.403Z,6.17
2022-10-31T07:55:32.946Z,7.67
2022-10-31T07:58:01.709Z,8.13
2022-10-31T08:00:28.950Z,8.13
2022-10-31T08:03:03.290Z,7.27
2022-10-31T08:05:31.480Z,8.37
2022-10-31T08:07:59.065Z,8.00
2022-10-31T08:10:27.061Z,7.27
2022-10-31T08:13:10.775Z,6.80
2022-10-31T08:15:40.383Z,7.07
2022-10-31T08:18:11.477Z,7.60
2022-10-31T08:20:38.211Z,6.43
2022-10-31T08:23:06.141Z,7.10
2022-10-31T08:25:38.287Z,7.53
2022-10-31T08:28:07.559Z,7.03
2022-10-31T08:30:36.274Z,6.40
2022-10-31T08:33:12.845Z,6.33
2022-10-31T08:38:20.398Z,6.17
2022-10-31T08:40:50.335Z,6.87
2022-10-31T08:43:18.321Z,6.60
2022-10-31T08:45:48.828Z,6.80
2022-10-31T08:48:19.636Z,6.13
2022-10-31T08:50:46.970Z,6.57
2022-10-31T08:53:16.497Z,6.07
2022-10-31T08:55:44.573Z,5.90
2022-10-31T08:58:18.931Z,10.23
2022-10-31T09:00:47.139Z,6.73
2022-10-31T09:03:16.491Z,6.88
2022-10-31T09:05:45.030Z,6.82
2022-10-31T09:08:16.920Z,6.78
2022-10-31T09:10:44.604Z,7.60
2022-10-31T09:13:13.933Z,8.73
2022-10-31T09:15:44.756Z,6.85
2022-10-31T09:18:12.795Z,7.88
2022-10-31T09:20:41.220Z,7.22
2022-10-31T09:23:14.066Z,7.65
2022-10-31T09:25:49.161Z,7.40
2022-10-31T09:28:19.272Z,7.53
2022-10-31T09:30:48.768Z,7.25
2022-10-31T09:33:15.781Z,8.25
2022-10-31T09:35:43.272Z,7.93
2022-10-31T09:38:20.701Z,8.35
2022-10-31T09:40:56.152Z,7.18
2022-10-31T09:43:35.063Z,7.70
2022-10-31T09:46:21.736Z,8.93
2022-10-31T09:49:42.602Z,7.63
2022-10-31T09:52:21.257Z,7.85
2022-10-31T09:55:09.773Z,9.25
2022-10-31T09:57:38.246Z,9.20
2022-10-31T10:00:11.171Z,8.85
2022-10-31T10:02:42.853Z,8.85
2022-10-31T10:05:16.361Z,9.10
2022-10-31T10:08:11.013Z,10.02
2022-10-31T10:10:52.570Z,10.18
2022-10-31T10:13:28.274Z,10.68
2022-10-31T10:16:20.988Z,9.43
2022-10-31T10:18:50.642Z,10.48
2022-10-31T10:21:52.293Z,10.93
2022-10-31T10:24:31.481Z,11.55
2022-10-31T10:27:19.224Z,10.60
2022-10-31T10:29:58.522Z,10.40
2022-10-31T10:32:33.092Z,10.85
2022-10-31T10:35:23.331Z,10.43
2022-10-31T10:37:54.993Z,9.77
2022-10-31T10:40:25.186Z,10.82
2022-10-31T10:43:25.175Z,11.05
2022-10-31T10:46:13.024Z,11.13
2022-10-31T10:48:44.661Z,11.65
2022-10-31T10:54:49.097Z,12.00
2022-10-31T10:57:19.674Z,11.70
2022-10-31T10:59:50.413Z,11.10
2022-10-31T11:02:25.386Z,12.50
2022-10-31T11:04:56.083Z,12.00
2022-10-31T11:07:23.394Z,12.05
2022-10-31T11:09:50.226Z,12.50
2022-10-31T11:12:31.343Z,12.48
2022-10-31T11:15:08.671Z,13.57
2022-10-31T11:17:38.865Z,14.18
2022-10-31T11:20:17.921Z,12.52
2022-10-31T11:22:47.800Z,13.43
2022-10-31T11:25:20.319Z,14.07
2022-10-31T11:27:47.772Z,12.80
2022-10-31T11:30:15.594Z,14.25
2022-10-31T11:32:48.924Z,12.68
2022-10-31T11:35:19.514Z,13.82
2022-10-31T11:37:49.143Z,14.32
2022-10-31T11:40:22.195Z,13.98
2022-10-31T11:42:51.002Z,12.55
2022-10-31T11:45:28.269Z,13.98
2022-10-31T11:47:59.897Z,14.45
2022-10-31T11:50:34.153Z,13.90
2022-10-31T11:53:01.770Z,15.57
2022-10-31T11:55:33.344Z,13.88
2022-10-31T11:58:01.048Z,14.80
2022-10-31T12:00:33.413Z,14.20
2022-10-31T12:03:24.030Z,12.73
2022-10-31T12:06:12.967Z,15.13
2022-10-31T12:08:41.820Z,15.15
2022-10-31T12:11:39.198Z,14.45
2022-10-31T12:14:25.415Z,13.77
2022-10-31T12:17:25.715Z,13.95
2022-10-31T12:20:07.522Z,14.18
2022-10-31T12:22:57.187Z,15.32
2022-10-31T12:25:42.016Z,14.90
2022-10-31T12:28:41.369Z,13.48
2022-10-31T12:31:29.645Z,13.30
2022-10-31T12:34:14.477Z,12.60
2022-10-31T12:36:56.837Z,12.65
2022-10-31T12:39:33.562Z,12.55
2022-10-31T12:42:41.602Z,12.05
2022-10-31T12:45:54.194Z,11.80
2022-10-31T12:48:52.670Z,11.18
2022-10-31T12:51:40.460Z,12.07
2022-10-31T12:54:48.234Z,11.95
2022-10-31T12:57:17.958Z,12.20
2022-10-31T12:59:54.388Z,12.38
2022-10-31T13:02:44.712Z,12.32
2022-10-31T13:05:30.104Z,12.55
2022-10-31T13:08:05.158Z,13.00
2022-10-31T13:10:40.939Z,12.80
2022-10-31T13:13:25.876Z,11.68
2022-10-31T13:16:04.646Z,12.45
2022-10-31T13:18:49.644Z,12.70
2022-10-31T13:21:27.353Z,11.18
2022-10-31T13:23:57.569Z,11.55
2022-10-31T13:26:51.133Z,11.98
2022-10-31T13:29:43.590Z,11.35
2022-10-31T13:32:12.503Z,12.52
2022-10-31T13:34:46.340Z,13.80
2022-10-31T13:37:19.080Z,12.98
2022-10-31T13:40:07.262Z,13.65
2022-10-31T13:42:54.036Z,14.00
2022-10-31T13:45:23.487Z,13.10
2022-10-31T13:48:30.299Z,12.00
2022-10-31T13:51:00.759Z,11.82
2022-10-31T13:53:45.910Z,14.85
2022-10-31T13:56:16.944Z,12.73
2022-10-31T13:59:01.408Z,13.40
2022-10-31T14:01:38.537Z,13.88
2022-10-31T14:04:17.007Z,13.68
2022-10-31T14:07:05.273Z,13.68
2022-10-31T14:09:41.067Z,12.43
2022-10-31T14:12:24.645Z,12.15
2022-10-31T14:14:55.082Z,12.35
2022-10-31T14:17:25.933Z,10.98
2022-10-31T14:20:11.986Z,10.43
2022-10-31T14:22:42.899Z,11.25
2022-10-31T14:25:45.182Z,11.00
2022-10-31T14:28:33.434Z,11.35
2022-10-31T14:31:01.441Z,10.82
2022-10-31T14:33:30.594Z,9.27
2022-10-31T14:36:19.959Z,9.77
2022-10-31T14:39:12.545Z,9.90
2022-10-31T14:41:39.190Z,9.98
2022-10-31T14:44:20.103Z,8.95
2022-10-31T14:47:10.773Z,9.70
2022-10-31T14:50:09.168Z,9.77
2022-10-31T14:52:38.840Z,8.77
2022-10-31T14:55:12.507Z,9.07
2022-10-31T14:57:45.384Z,8.38
2022-10-31T15:00:18.360Z,8.32
2022-10-31T15:03:15.718Z,9.07
2022-10-31T15:05:49.498Z,8.50
2022-10-31T15:08:35.943Z,8.30
2022-10-31T15:11:37.701Z,8.25
2022-10-31T15:14:36.678Z,9.40
2022-10-31T15:17:05.064Z,9.70
2022-10-31T15:19:34.519Z,9.10
2022-10-31T15:22:01.701Z,9.75
2022-10-31T15:24:40.616Z,12.23
2022-10-31T15:27:15.970Z,11.88
2022-10-31T15:29:54.467Z,12.32
2022-10-31T15:32:29.666Z,12.85
2022-10-31T15:34:57.846Z,14.20
2022-10-31T15:37:26.691Z,13.65
2022-10-31T15:39:53.755Z,14.63
2022-10-31T15:42:40.383Z,15.25
2022-10-31T15:45:15.263Z,15.88
2022-10-31T15:48:17.745Z,16.88
2022-10-31T15:50:58.537Z,16.38
2022-10-31T15:53:26.993Z,16.13
2022-10-31T15:56:00.415Z,18.65
2022-10-31T15:58:29.286Z,18.73
2022-10-31T16:01:05.556Z,17.23
2022-10-31T16:03:34.171Z,17.98
2022-10-31T16:06:05.897Z,15.68
2022-10-31T16:08:36.702Z,15.85
2022-10-31T16:11:19.079Z,16.23
2022-10-31T16:14:11.879Z,16.00
2022-10-31T16:16:49.141Z,15.45
2022-10-31T16:19:20.410Z,17.38
2022-10-31T16:21:51.049Z,17.13
2022-10-31T16:24:30.805Z,18.77
2022-10-31T16:27:16.540Z,17.55
2022-10-31T16:29:47.068Z,16.88
2022-10-31T16:32:25.553Z,19.05
2022-10-31T16:35:11.265Z,16.80
2022-10-31T16:37:44.459Z,18.73
2022-10-31T16:40:15.445Z,22.77
2022-10-31T16:42:43.223Z,21.27
2022-10-31T16:45:18.478Z,20.07
2022-10-31T16:47:45.717Z,18.43
2022-10-31T16:50:22.994Z,18.37
2022-10-31T16:53:12.408Z,18.17
2022-10-31T16:55:45.433Z,19.90
2022-10-31T16:58:24.242Z,20.33
2022-10-31T17:00:51.848Z,20.50
2022-10-31T17:03:22.163Z,19.87
2022-10-31T17:05:49.069Z,20.47
2022-10-31T17:08:16.074Z,18.53
2022-10-31T17:10:44.455Z,20.30
2022-10-31T17:13:23.026Z,18.57
2022-10-31T17:15:53.359Z,19.47
2022-10-31T17:18:24.389Z,17.27
2022-10-31T17:21:03.187Z,19.33
2022-10-31T17:23:30.363Z,18.47
2022-10-31T17:25:57.347Z,19.90
2022-10-31T17:28:26.488Z,18.87
2022-10-31T17:30:55.610Z,20.13
2022-10-31T17:33:22.729Z,21.07
2022-10-31T17:35:49.548Z,22.27
2022-10-31T17:38:16.241Z,25.27
2022-10-31T17:40:43.123Z,22.80
2022-10-31T17:43:10.993Z,22.67
2022-10-31T17:45:39.920Z,22.70
2022-10-31T17:48:07.116Z,22.97
2022-10-31T17:50:33.880Z,21.37
2022-10-31T17:53:01.116Z,22.97
2022-10-31T17:55:29.679Z,24.13
2022-10-31T17:57:59.378Z,26.80
2022-10-31T18:00:26.863Z,33.57
2022-10-31T18:02:53.646Z,34.40
2022-10-31T18:05:20.341Z,34.83
2022-10-31T18:07:50.902Z,26.67
2022-10-31T18:10:17.690Z,31.67
2022-10-31T18:12:44.489Z,21.47
2022-10-31T18:15:11.283Z,18.87
2022-10-31T18:17:41.048Z,16.00
2022-10-31T18:20:09.802Z,16.03
2022-10-31T18:22:36.805Z,14.87
2022-10-31T18:25:04.145Z,15.53
2022-10-31T18:27:30.845Z,15.43
2022-10-31T18:29:57.525Z,14.97
2022-10-31T18:32:24.223Z,15.43
2022-10-31T18:34:50.862Z,15.13
2022-10-31T18:37:17.647Z,15.80
2022-10-31T18:39:44.322Z,15.33
2022-10-31T18:42:11.008Z,16.43
2022-10-31T18:44:38.215Z,15.93
2022-10-31T18:47:04.970Z,16.83
2022-10-31T18:49:32.816Z,15.00
2022-10-31T18:52:00.161Z,15.00
2022-10-31T18:54:26.940Z,15.17
2022-10-31T18:56:54.522Z,15.57
2022-10-31T18:59:21.429Z,15.27
2022-10-31T19:01:48.224Z,14.70
2022-10-31T19:04:15.046Z,15.80
2022-10-31T19:06:41.796Z,15.57
2022-10-31T19:09:11.198Z,20.63
2022-10-31T19:11:39.203Z,18.87
2022-10-31T19:14:08.358Z,17.40
2022-10-31T19:16:35.494Z,18.73
2022-10-31T19:19:02.743Z,18.13
2022-10-31T19:21:31.125Z,21.27
2022-10-31T19:23:58.705Z,25.77
2022-10-31T19:26:26.545Z,23.00
2022-10-31T19:28:54.914Z,20.67
2022-10-31T19:31:21.807Z,24.43
2022-10-31T19:33:48.493Z,21.40
2022-10-31T19:36:18.086Z,23.47
2022-10-31T19:38:47.096Z,24.47
2022-10-31T19:41:22.683Z,24.30
2022-10-31T19:43:50.181Z,22.67
2022-10-31T19:46:22.784Z,25.07
2022-10-31T19:48:54.809Z,26.67
2022-10-31T19:51:22.240Z,27.90
2022-10-31T19:53:52.515Z,31.17
2022-10-31T19:56:24.589Z,32.67
2022-10-31T19:58:51.364Z,37.63
2022-10-31T20:01:20.801Z,28.37
2022-10-31T20:03:49.193Z,26.93
2022-10-31T20:08:44.302Z,26.00
2022-10-31T20:11:10.970Z,23.10
2022-10-31T20:13:37.689Z,21.77
2022-10-31T20:16:10.239Z,20.10
2022-10-31T20:18:37.735Z,21.30
2022-10-31T20:21:07.344Z,22.17
2022-10-31T20:23:35.089Z,20.07
2022-10-31T20:26:02.461Z,18.17
2022-10-31T20:28:33.083Z,18.53
2022-10-31T20:31:01.338Z,22.20
2022-10-31T20:33:28.006Z,20.10
2022-10-31T20:35:54.655Z,20.17
2022-10-31T20:38:21.277Z,17.43
2022-10-31T20:40:47.989Z,14.63
2022-10-31T20:43:16.354Z,13.40
2022-10-31T20:45:43.007Z,14.40
2022-10-31T20:48:09.739Z,16.10
2022-10-31T20:50:38.651Z,16.37
2022-10-31T20:53:05.871Z,16.37
2022-10-31T20:55:32.608Z,24.17
2022-10-31T20:57:59.267Z,19.57
2022-10-31T21:00:25.974Z,19.37
2022-10-31T21:02:52.618Z,19.97
2022-10-31T21:05:19.250Z,18.13
2022-10-31T21:07:45.954Z,19.00
2022-10-31T21:10:15.372Z,23.47
2022-10-31T21:12:45.766Z,21.27
2022-10-31T21:15:14.270Z,20.73
2022-10-31T21:17:41.592Z,19.23
2022-10-31T21:20:10.037Z,18.80
2022-10-31T21:22:36.845Z,20.53
2022-10-31T21:25:03.752Z,18.23
2022-10-31T21:27:31.129Z,18.53
2022-10-31T21:29:58.088Z,18.33
2022-10-31T21:32:24.846Z,17.93
2022-10-31T21:34:51.502Z,22.27
2022-10-31T21:37:18.255Z,22.57
2022-10-31T21:39:49.747Z,18.53
2022-10-31T21:42:20.575Z,19.70
2022-10-31T21:44:51.192Z,21.77
2022-10-31T21:47:18.299Z,20.57
2022-10-31T21:49:45.130Z,22.93
2022-10-31T21:52:12.185Z,21.10
2022-10-31T21:54:38.833Z,18.63
2022-10-31T21:57:05.491Z,18.37
2022-10-31T21:59:32.177Z,17.83
2022-10-31T22:02:00.512Z,19.30
2022-10-31T22:04:28.318Z,22.83
2022-10-31T22:06:55.824Z,21.10
2022-10-31T22:09:23.679Z,22.47
2022-10-31T22:11:50.916Z,20.40
2022-10-31T22:14:17.790Z,21.90
2022-10-31T22:16:44.697Z,19.60
2022-10-31T22:19:13.312Z,21.27
2022-10-31T22:21:46.307Z,20.53
2022-10-31T22:27:49.005Z,22.47
2022-10-31T22:30:15.683Z,20.53
2022-10-31T22:32:42.429Z,20.20
2022-10-31T22:35:09.317Z,19.67
2022-10-31T22:37:35.971Z,18.27
2022-10-31T22:40:03.461Z,17.90
2022-10-31T22:42:30.135Z,17.80
2022-10-31T22:44:56.827Z,17.53
2022-10-31T22:47:23.501Z,16.47
2022-10-31T22:49:50.235Z,16.13
2022-10-31T22:52:16.942Z,15.67
2022-10-31T22:54:43.609Z,14.67
2022-10-31T22:57:10.299Z,16.30
2022-10-31T22:59:36.974Z,15.00
2022-10-31T23:02:06.036Z,14.13
2022-10-31T23:04:35.001Z,15.13
2022-10-31T23:07:01.717Z,14.50
2022-10-31T23:09:28.485Z,13.70
2022-10-31T23:12:15.102Z,14.70
2022-10-31T23:14:41.766Z,13.80
2022-10-31T23:17:08.556Z,14.47
2022-10-31T23:19:36.152Z,15.07
2022-10-31T23:22:04.060Z,13.70
2022-10-31T23:24:42.301Z,14.37
2022-10-31T23:27:24.687Z,14.33
2022-10-31T23:29:53.730Z,16.20
2022-10-31T23:32:26.178Z,16.40
2022-10-31T23:34:55.554Z,16.40
2022-10-31T23:37:25.140Z,15.87
2022-10-31T23:39:52.329Z,16.80
2022-10-31T23:42:19.906Z,16.80
2022-10-31T23:44:46.923Z,16.73
2022-10-31T23:47:13.945Z,16.57
2022-10-31T23:49:40.957Z,16.43
2022-10-31T23:52:08.395Z,17.60
2022-10-31T23:54:35.155Z,16.70
2022-10-31T23:57:02.286Z,16.10
2022-10-31T23:59:29.163Z,16.40
